Time;durP1;ratioP1;P1;durP2;ratioP2;P2;SDS_P1;SDS_P2;PMS_P1;PMS_P2;Temp;Humidity;BMP_temperature;BMP_pressure;BME280_temperature;BME280_humidity;BME280_pressure;Samples;Min_cycle;Max_cycle;Signal;HPM_P1;HPM_P2
2021/11/30 00:00:44;;;;;;;33.00;17.52;;;-0.70;99.90;;;;;;4996285;28;20415;-76
2021/11/30 00:03:09;;;;;;;20.55;12.60;;;-0.60;99.90;;;;;;4995072;28;20031;-77
2021/11/30 00:05:35;;;;;;;26.85;15.80;;;-0.60;99.90;;;;;;4996124;28;20030;-76
2021/11/30 00:08:03;;;;;;;27.70;14.93;;;-0.70;99.90;;;;;;4994964;28;20019;-76
2021/11/30 00:10:44;;;;;;;31.65;18.20;;;-0.70;99.90;;;;;;4995747;28;20165;-76
2021/11/30 00:13:21;;;;;;;32.22;17.63;;;-0.70;99.90;;;;;;4995796;28;20018;-77
2021/11/30 00:15:49;;;;;;;30.58;13.05;;;-0.60;99.90;;;;;;4994804;28;20468;-76
2021/11/30 00:18:16;;;;;;;29.90;17.05;;;-0.70;99.90;;;;;;4994335;28;20053;-76
2021/11/30 00:20:43;;;;;;;29.15;14.50;;;-0.70;99.90;;;;;;4996029;28;20033;-76
2021/11/30 00:23:09;;;;;;;24.60;13.27;;;-0.70;99.90;;;;;;4994656;28;20026;-77
2021/11/30 00:25:37;;;;;;;24.42;13.57;;;-0.70;99.90;;;;;;4995821;28;20031;-77
2021/11/30 00:28:04;;;;;;;28.05;16.17;;;-0.70;99.90;;;;;;4995976;28;20023;-76
2021/11/30 00:30:32;;;;;;;27.55;13.85;;;-0.70;99.90;;;;;;4995587;28;20038;-77
2021/11/30 00:32:58;;;;;;;22.45;13.15;;;-0.70;99.90;;;;;;4995729;28;20033;-76
2021/11/30 00:35:23;;;;;;;19.90;10.98;;;-0.70;99.90;;;;;;4993991;28;20041;-77
2021/11/30 00:37:50;;;;;;;27.80;15.38;;;-0.70;99.90;;;;;;4994466;28;20030;-77
2021/11/30 00:40:16;;;;;;;23.33;12.15;;;-0.70;99.90;;;;;;4994169;28;20503;-76
2021/11/30 00:42:42;;;;;;;17.52;10.68;;;-0.70;99.90;;;;;;4995537;28;20031;-76
2021/11/30 00:45:09;;;;;;;21.92;12.55;;;-0.70;99.90;;;;;;4994168;28;20030;-76
2021/11/30 00:47:44;;;;;;;18.35;9.73;;;-0.70;99.90;;;;;;4995158;28;20113;-76
2021/11/30 00:50:10;;;;;;;22.60;13.40;;;-0.60;99.90;;;;;;4995221;28;20477;-77
2021/11/30 00:52:36;;;;;;;22.23;13.68;;;-0.70;99.90;;;;;;4994001;28;20476;-77
2021/11/30 00:55:03;;;;;;;24.15;12.40;;;-0.60;99.90;;;;;;4993829;28;20022;-77
2021/11/30 00:57:29;;;;;;;19.33;11.23;;;-0.60;99.90;;;;;;4993782;28;20027;-76
2021/11/30 00:59:54;;;;;;;19.40;10.98;;;-0.60;99.90;;;;;;4993877;28;20057;-76
2021/11/30 01:02:20;;;;;;;24.73;11.68;;;-0.60;99.90;;;;;;4995050;28;20019;-77
2021/11/30 01:04:46;;;;;;;20.80;11.63;;;-0.60;99.90;;;;;;4993546;28;20014;-76
2021/11/30 01:07:12;;;;;;;19.75;11.55;;;-0.60;99.90;;;;;;4993537;28;20041;-77
2021/11/30 01:09:39;;;;;;;19.85;10.48;;;-0.50;99.90;;;;;;4993547;28;20030;-76
2021/11/30 01:12:05;;;;;;;21.98;10.95;;;-0.50;99.90;;;;;;4995047;28;20044;-77
2021/11/30 01:14:31;;;;;;;18.92;11.77;;;-0.50;99.90;;;;;;4993497;28;20015;-77
2021/11/30 01:16:58;;;;;;;18.92;9.48;;;-0.60;99.90;;;;;;4994497;28;20503;-76
2021/11/30 01:19:25;;;;;;;19.00;10.57;;;-0.50;99.90;;;;;;4994760;28;20134;-76
2021/11/30 01:21:51;;;;;;;22.58;11.20;;;-0.50;99.90;;;;;;4993278;28;20475;-76
2021/11/30 01:24:17;;;;;;;17.33;9.80;;;-0.50;99.90;;;;;;4994506;28;20106;-76
2021/11/30 01:26:43;;;;;;;17.40;9.73;;;-0.50;99.90;;;;;;4993278;28;20026;-76
2021/11/30 01:29:09;;;;;;;21.83;11.82;;;-0.50;99.90;;;;;;4994207;28;20627;-76
2021/11/30 01:31:35;;;;;;;20.10;10.88;;;-0.50;99.90;;;;;;4994108;28;20027;-76
2021/11/30 01:34:01;;;;;;;19.92;11.63;;;-0.50;99.90;;;;;;4994230;28;20073;-76
2021/11/30 01:36:27;;;;;;;19.05;11.25;;;-0.60;99.90;;;;;;4993220;28;20026;-77
2021/11/30 01:38:52;;;;;;;19.55;10.73;;;-0.60;99.90;;;;;;4993056;28;20530;-76
2021/11/30 01:41:18;;;;;;;17.63;10.52;;;-0.50;99.90;;;;;;4993037;28;20026;-76
2021/11/30 01:43:45;;;;;;;20.45;9.88;;;-0.50;99.90;;;;;;4993216;28;20058;-77
2021/11/30 01:49:16;;;;;;;16.25;10.20;;;-0.50;99.90;;;;;;4993754;28;20050;-76
2021/11/30 01:51:42;;;;;;;19.17;9.85;;;-0.60;99.90;;;;;;4994274;28;20018;-76
2021/11/30 01:54:08;;;;;;;20.77;10.90;;;-0.50;99.90;;;;;;4992872;28;20030;-77
2021/11/30 01:56:34;;;;;;;17.00;8.82;;;-0.50;99.90;;;;;;4992877;28;20022;-76
2021/11/30 01:58:59;;;;;;;18.42;11.05;;;-0.60;99.90;;;;;;4992807;28;20377;-77
2021/11/30 02:01:26;;;;;;;22.40;12.85;;;-0.50;99.90;;;;;;4994088;28;20049;-77
2021/11/30 02:03:52;;;;;;;27.55;13.20;;;-0.50;99.90;;;;;;4992779;28;20523;-76
2021/11/30 02:06:18;;;;;;;30.80;17.92;;;-0.50;99.90;;;;;;4992494;28;20031;-76
2021/11/30 02:08:43;;;;;;;21.73;11.38;;;-0.50;99.90;;;;;;4992603;28;20790;-76
2021/11/30 02:11:09;;;;;;;23.58;13.65;;;-0.50;99.90;;;;;;4993954;28;20424;-77
2021/11/30 02:13:35;;;;;;;17.60;10.25;;;-0.50;99.90;;;;;;4992630;28;20108;-77
2021/11/30 02:16:02;;;;;;;16.77;10.68;;;-0.50;99.90;;;;;;4992585;28;20022;-76
2021/11/30 02:18:28;;;;;;;21.65;11.23;;;-0.50;99.90;;;;;;4993578;28;20029;-76
2021/11/30 02:20:59;;;;;;;17.40;9.45;;;-0.50;99.90;;;;;;4992265;28;20392;-76
2021/11/30 02:26:11;;;;;;;16.90;9.45;;;-0.50;99.90;;;;;;4993533;28;20061;-76
2021/11/30 02:28:50;;;;;;;16.38;10.27;;;-0.50;99.90;;;;;;4992225;28;20504;-76
2021/11/30 02:31:17;;;;;;;15.70;10.25;;;-0.50;99.90;;;;;;4993307;28;20023;-76
2021/11/30 02:33:43;;;;;;;17.30;8.45;;;-0.50;99.90;;;;;;4992105;28;20018;-77
2021/11/30 02:39:08;;;;;;;11.50;8.00;;;-0.50;99.90;;;;;;4991949;28;20105;-76
2021/11/30 02:41:36;;;;;;;12.10;8.30;;;-0.50;99.90;;;;;;4992520;28;20017;-76
2021/11/30 02:44:01;;;;;;;13.45;9.15;;;-0.50;99.90;;;;;;4993318;28;20472;-77
2021/11/30 02:46:30;;;;;;;14.63;8.40;;;-0.50;99.90;;;;;;4992066;28;20113;-77
2021/11/30 02:48:56;;;;;;;17.45;8.80;;;-0.50;99.90;;;;;;4991922;28;20078;-77
2021/11/30 02:51:21;;;;;;;15.13;8.07;;;-0.50;99.90;;;;;;4977806;28;20026;-77
2021/11/30 02:53:47;;;;;;;15.45;9.60;;;-0.50;99.90;;;;;;4975913;28;20025;-77
2021/11/30 02:56:13;;;;;;;17.60;9.45;;;-0.50;99.90;;;;;;4975774;28;20018;-77
2021/11/30 02:58:38;;;;;;;17.95;9.23;;;-0.50;99.90;;;;;;4993262;28;20038;-77
2021/11/30 03:01:06;;;;;;;13.90;9.55;;;-0.50;99.90;;;;;;4993132;28;20109;-76
2021/11/30 03:03:32;;;;;;;13.20;8.43;;;-0.50;99.90;;;;;;4992080;28;20427;-76
2021/11/30 03:05:58;;;;;;;14.98;9.02;;;-0.50;99.90;;;;;;4993068;28;20137;-76
2021/11/30 03:08:23;;;;;;;17.92;8.35;;;-0.50;99.90;;;;;;4993359;28;20031;-76
2021/11/30 03:10:49;;;;;;;16.20;8.20;;;-0.50;99.90;;;;;;4991824;28;20042;-77
2021/11/30 03:13:15;;;;;;;13.48;7.53;;;-0.50;99.90;;;;;;4992043;28;20026;-77
2021/11/30 03:15:40;;;;;;;13.63;8.18;;;-0.50;99.90;;;;;;4993097;28;20030;-77
2021/11/30 03:18:06;;;;;;;16.98;10.30;;;-0.50;99.90;;;;;;4992975;28;20027;-76
2021/11/30 03:20:32;;;;;;;14.13;8.75;;;-0.50;99.90;;;;;;4991663;28;20018;-77
2021/11/30 03:22:58;;;;;;;18.92;9.00;;;-0.50;99.90;;;;;;4992900;28;20499;-77
2021/11/30 03:25:24;;;;;;;15.35;8.13;;;-0.50;99.90;;;;;;4992743;28;20026;-76
2021/11/30 03:27:50;;;;;;;15.60;7.93;;;-0.50;99.90;;;;;;4978611;28;20029;-76
2021/11/30 03:30:20;;;;;;;14.50;8.40;;;-0.50;99.90;;;;;;4983598;28;20046;-76
2021/11/30 03:35:30;;;;;;;12.05;7.93;;;-0.50;99.90;;;;;;4993162;28;20041;-76
2021/11/30 03:37:56;;;;;;;12.55;7.70;;;-0.50;99.90;;;;;;4993069;28;20030;-76
2021/11/30 03:40:22;;;;;;;16.80;8.70;;;-0.50;99.90;;;;;;4975587;28;20031;-76
2021/11/30 03:42:47;;;;;;;13.30;8.45;;;-0.50;99.90;;;;;;4975455;28;20495;-76
2021/11/30 03:45:14;;;;;;;16.15;8.15;;;-0.50;99.90;;;;;;4992859;28;20072;-76
2021/11/30 03:47:39;;;;;;;17.63;9.25;;;-0.50;99.90;;;;;;4975403;28;20056;-76
2021/11/30 03:50:05;;;;;;;15.10;9.35;;;-0.50;99.90;;;;;;4992846;28;20039;-76
2021/11/30 03:52:31;;;;;;;18.30;11.13;;;-0.50;99.90;;;;;;4975273;28;20029;-76
2021/11/30 03:54:57;;;;;;;19.65;8.38;;;-0.50;99.90;;;;;;4978537;28;20018;-76
2021/11/30 03:57:22;;;;;;;15.68;9.45;;;-0.50;99.90;;;;;;4996146;28;20393;-76
2021/11/30 03:59:48;;;;;;;14.20;8.15;;;-0.50;99.90;;;;;;4978626;28;20034;-76
2021/11/30 04:02:16;;;;;;;12.70;8.43;;;-0.50;99.90;;;;;;4978776;28;20488;-76
2021/11/30 04:04:44;;;;;;;15.60;10.05;;;-0.50;99.90;;;;;;4978402;28;20472;-76
2021/11/30 04:07:10;;;;;;;14.95;8.32;;;-0.50;99.90;;;;;;4978502;28;20081;-76
2021/11/30 04:09:36;;;;;;;15.60;8.40;;;-0.50;99.90;;;;;;4978331;28;20087;-76
2021/11/30 04:12:04;;;;;;;14.40;9.05;;;-0.50;99.90;;;;;;4978514;28;20073;-76
2021/11/30 04:14:30;;;;;;;11.77;7.88;;;-0.50;99.90;;;;;;4995702;28;20500;-76
2021/11/30 04:16:55;;;;;;;13.35;8.00;;;-0.50;99.90;;;;;;4978588;28;20109;-77
2021/11/30 04:19:21;;;;;;;13.40;8.07;;;-0.50;99.90;;;;;;4995899;28;20089;-76
2021/11/30 04:21:47;;;;;;;17.30;9.13;;;-0.60;99.90;;;;;;4995912;28;20080;-76
2021/11/30 04:24:13;;;;;;;10.45;7.03;;;-0.50;99.90;;;;;;4978165;28;20129;-76
2021/11/30 04:26:39;;;;;;;12.10;7.10;;;-0.50;99.90;;;;;;4995723;28;20038;-77
2021/11/30 04:29:05;;;;;;;10.43;6.63;;;-0.60;99.90;;;;;;4978113;28;20096;-77
2021/11/30 04:31:31;;;;;;;13.70;6.90;;;-0.60;99.90;;;;;;4995244;28;20042;-76
2021/11/30 04:33:58;;;;;;;11.88;7.60;;;-0.60;99.90;;;;;;4978333;28;20038;-76
2021/11/30 04:36:24;;;;;;;13.35;6.63;;;-0.60;99.90;;;;;;4978056;28;20034;-75
2021/11/30 04:38:50;;;;;;;10.10;6.43;;;-0.60;99.90;;;;;;4995579;28;20023;-76
2021/11/30 04:41:15;;;;;;;10.45;6.95;;;-0.70;99.90;;;;;;4978219;28;20061;-76
2021/11/30 04:43:41;;;;;;;10.52;6.00;;;-0.70;99.90;;;;;;4977918;28;20463;-77
2021/11/30 04:46:18;;;;;;;10.70;6.82;;;-0.70;99.90;;;;;;4995399;28;20058;-76
2021/11/30 04:48:53;;;;;;;9.10;5.85;;;-0.80;99.90;;;;;;4995117;28;20162;-76
2021/11/30 04:51:19;;;;;;;10.60;5.65;;;-0.80;99.90;;;;;;4995369;28;20077;-76
2021/11/30 04:53:46;;;;;;;9.52;6.45;;;-0.80;99.90;;;;;;4995636;28;20034;-76
2021/11/30 04:56:16;;;;;;;9.40;6.18;;;-0.80;99.90;;;;;;4977689;28;20026;-76
2021/11/30 04:58:43;;;;;;;9.65;6.15;;;-0.80;99.90;;;;;;4977687;28;20057;-76
2021/11/30 05:01:09;;;;;;;9.05;6.10;;;-0.80;99.90;;;;;;4977627;28;20027;-76
2021/11/30 05:03:35;;;;;;;10.23;6.88;;;-0.80;99.90;;;;;;4977534;28;20061;-77
2021/11/30 05:06:02;;;;;;;10.90;6.22;;;-0.80;99.90;;;;;;4976519;28;20049;-76
2021/11/30 05:08:29;;;;;;;9.65;6.05;;;-0.80;99.90;;;;;;4995082;28;20395;-76
2021/11/30 05:10:55;;;;;;;10.45;6.85;;;-0.80;99.90;;;;;;4977433;28;20038;-76
2021/11/30 05:13:21;;;;;;;9.82;6.45;;;-0.80;99.90;;;;;;4977258;28;20484;-76
2021/11/30 05:15:46;;;;;;;10.45;6.90;;;-0.70;99.90;;;;;;4994988;28;20050;-76
2021/11/30 05:18:12;;;;;;;8.68;5.50;;;-0.70;99.90;;;;;;4994673;28;20026;-76
2021/11/30 05:20:38;;;;;;;10.77;7.18;;;-0.80;99.90;;;;;;4977364;28;20088;-76
2021/11/30 05:23:05;;;;;;;8.20;5.50;;;-0.80;99.90;;;;;;4977029;28;20069;-76
2021/11/30 05:25:35;;;;;;;8.98;6.25;;;-0.80;99.90;;;;;;4994473;28;20072;-76
2021/11/30 05:28:05;;;;;;;9.82;6.13;;;-0.80;99.90;;;;;;4977080;28;20031;-76
2021/11/30 05:30:38;;;;;;;11.55;5.63;;;-0.80;99.90;;;;;;4977086;28;20488;-76
2021/11/30 05:33:08;;;;;;;11.93;6.88;;;-0.80;99.90;;;;;;4977200;28;20030;-76
2021/11/30 05:35:35;;;;;;;11.77;6.15;;;-0.80;99.90;;;;;;4994463;28;20499;-76
2021/11/30 05:38:01;;;;;;;9.07;6.05;;;-0.80;99.90;;;;;;4994638;28;20488;-77
2021/11/30 05:40:28;;;;;;;10.27;5.85;;;-0.80;99.90;;;;;;4976965;28;20022;-76
2021/11/30 05:42:54;;;;;;;10.23;6.38;;;-0.80;99.90;;;;;;4976910;28;20423;-76
2021/11/30 05:45:20;;;;;;;13.77;7.07;;;-0.90;99.90;;;;;;4973587;28;20026;-76
2021/11/30 05:47:46;;;;;;;16.00;7.40;;;-0.90;99.90;;;;;;4991235;28;20394;-76
2021/11/30 05:50:12;;;;;;;16.65;7.15;;;-0.80;99.90;;;;;;4974812;28;20122;-76
2021/11/30 05:52:37;;;;;;;16.15;9.48;;;-0.90;99.90;;;;;;4993631;28;20057;-77
2021/11/30 05:55:04;;;;;;;16.48;7.20;;;-0.90;99.90;;;;;;4993783;28;20023;-76
2021/11/30 05:57:31;;;;;;;13.38;7.55;;;-0.90;99.90;;;;;;4976560;28;20054;-76
2021/11/30 05:59:59;;;;;;;15.15;8.15;;;-0.90;99.90;;;;;;4993798;28;20030;-75
2021/11/30 06:02:25;;;;;;;19.98;10.00;;;-1.00;99.90;;;;;;4975031;28;20018;-76
2021/11/30 06:04:51;;;;;;;33.63;13.98;;;-0.90;99.90;;;;;;4974339;28;20560;-75
2021/11/30 06:07:17;;;;;;;17.50;8.93;;;-0.90;99.90;;;;;;4991151;28;20448;-76
2021/11/30 06:09:43;;;;;;;55.35;20.15;;;-0.90;99.90;;;;;;4975024;28;20502;-75
2021/11/30 06:12:08;;;;;;;17.70;7.85;;;-0.90;99.90;;;;;;4955786;28;20037;-76
2021/11/30 06:14:34;;;;;;;30.52;13.27;;;-0.90;99.90;;;;;;4970394;28;20113;-76
2021/11/30 06:17:00;;;;;;;20.27;11.05;;;-0.90;99.90;;;;;;4969950;28;20027;-76
2021/11/30 06:19:26;;;;;;;37.15;16.63;;;-0.90;99.90;;;;;;4980899;28;20045;-76
2021/11/30 06:21:51;;;;;;;63.58;27.17;;;-0.90;99.90;;;;;;4975579;28;20513;-75
2021/11/30 06:24:18;;;;;;;15.60;8.93;;;-0.90;99.90;;;;;;4975863;28;20029;-76
2021/11/30 06:26:44;;;;;;;19.48;9.43;;;-0.90;99.90;;;;;;4991583;28;20551;-76
2021/11/30 06:29:10;;;;;;;15.90;7.95;;;-0.90;99.90;;;;;;4992417;28;20031;-76
2021/11/30 06:31:36;;;;;;;14.82;8.65;;;-0.90;99.90;;;;;;4974969;28;20061;-76
2021/11/30 06:34:01;;;;;;;12.88;8.65;;;-0.90;99.90;;;;;;4975028;28;20022;-76
2021/11/30 06:36:27;;;;;;;16.23;8.80;;;-0.90;99.90;;;;;;4974979;28;20068;-76
2021/11/30 06:38:55;;;;;;;13.25;8.40;;;-0.90;99.90;;;;;;4979480;28;20021;-75
2021/11/30 06:41:20;;;;;;;13.95;7.57;;;-0.90;99.90;;;;;;5013008;28;20093;-76
2021/11/30 06:43:46;;;;;;;17.50;8.63;;;-0.90;99.90;;;;;;5013297;28;20184;-76
2021/11/30 06:46:12;;;;;;;13.85;6.97;;;-0.90;99.90;;;;;;5012646;28;20080;-76
2021/11/30 06:48:37;;;;;;;12.38;7.78;;;-0.90;99.90;;;;;;4995223;28;20033;-76
2021/11/30 06:51:04;;;;;;;12.25;7.25;;;-0.90;99.90;;;;;;5013103;28;20042;-76
2021/11/30 06:53:33;;;;;;;14.82;7.85;;;-0.90;99.90;;;;;;5009578;28;20092;-76
2021/11/30 06:55:59;;;;;;;16.38;9.45;;;-0.90;99.90;;;;;;4992652;28;20424;-76
2021/11/30 06:58:25;;;;;;;25.60;15.70;;;-0.90;99.90;;;;;;4972421;28;20058;-76
2021/11/30 07:00:52;;;;;;;26.42;13.05;;;-0.80;99.90;;;;;;4993115;28;20031;-76
2021/11/30 07:03:20;;;;;;;41.08;20.67;;;-0.80;99.90;;;;;;4993390;28;20037;-76
2021/11/30 07:05:50;;;;;;;45.65;20.58;;;-0.80;99.90;;;;;;4993359;28;20019;-76
2021/11/30 07:08:19;;;;;;;50.22;23.98;;;-0.80;99.90;;;;;;4975896;28;20022;-76
2021/11/30 07:10:51;;;;;;;34.33;18.90;;;-0.80;99.90;;;;;;4992866;28;20030;-76
2021/11/30 07:13:28;;;;;;;45.03;24.73;;;-0.80;99.90;;;;;;4991485;28;20022;-76
2021/11/30 07:15:58;;;;;;;20.58;11.10;;;-0.70;99.90;;;;;;4973713;28;20468;-76
2021/11/30 07:18:25;;;;;;;29.02;16.75;;;-0.70;99.90;;;;;;4991133;28;20026;-76
2021/11/30 07:20:52;;;;;;;30.50;16.23;;;-0.70;99.90;;;;;;4973324;28;20022;-76
2021/11/30 07:23:18;;;;;;;16.88;11.18;;;-0.70;99.90;;;;;;4973564;28;20146;-76
2021/11/30 07:25:44;;;;;;;19.45;11.00;;;-0.70;99.90;;;;;;4973807;28;20177;-76
2021/11/30 07:28:10;;;;;;;21.33;12.20;;;-0.70;99.90;;;;;;4975666;28;20018;-76
2021/11/30 07:30:37;;;;;;;20.05;12.88;;;-0.70;99.90;;;;;;4979223;28;20480;-76
2021/11/30 07:33:03;;;;;;;22.27;12.50;;;-0.70;99.90;;;;;;4996643;28;20098;-76
2021/11/30 07:35:29;;;;;;;31.95;16.45;;;-0.70;99.90;;;;;;4978658;28;20037;-76
2021/11/30 07:37:55;;;;;;;25.45;17.13;;;-0.80;99.90;;;;;;4979158;28;20023;-76
2021/11/30 07:40:22;;;;;;;21.95;13.25;;;-0.70;99.90;;;;;;4978976;28;20019;-76
2021/11/30 07:42:47;;;;;;;24.02;13.40;;;-0.70;99.90;;;;;;4995977;28;20068;-77
2021/11/30 07:45:14;;;;;;;29.20;16.65;;;-0.70;99.90;;;;;;4976547;28;20023;-76
2021/11/30 08:45:09;;;;;;;46.08;26.33;;;-1.30;99.90;;;;;;5066631;28;20448;-77
2021/11/30 08:47:36;;;;;;;48.83;26.02;;;-0.90;99.90;;;;;;5066692;28;20025;-77
2021/11/30 08:50:08;;;;;;;37.08;19.38;;;-0.80;99.90;;;;;;5066538;28;20029;-77
2021/11/30 08:52:34;;;;;;;36.00;19.42;;;-0.70;99.90;;;;;;5065949;27;20021;-77
2021/11/30 08:55:00;;;;;;;35.53;18.85;;;-0.70;99.90;;;;;;5103446;27;20024;-77
2021/11/30 08:57:27;;;;;;;39.05;19.35;;;-0.60;99.90;;;;;;5131183;27;20026;-77
2021/11/30 08:59:54;;;;;;;39.80;20.83;;;-0.60;99.90;;;;;;5087108;27;20324;-77
2021/11/30 09:02:21;;;;;;;40.20;21.75;;;-0.60;99.90;;;;;;5052609;27;20707;-77
2021/11/30 09:04:47;;;;;;;38.67;21.10;;;-0.60;99.90;;;;;;5053181;27;20610;-77
2021/11/30 09:07:15;;;;;;;40.42;21.50;;;-0.60;99.90;;;;;;5053900;27;20042;-77
2021/11/30 09:09:42;;;;;;;42.22;21.90;;;-0.50;99.90;;;;;;5068700;27;20135;-77
2021/11/30 09:12:08;;;;;;;47.35;24.20;;;-0.40;99.90;;;;;;5053090;27;20021;-77
2021/11/30 09:14:34;;;;;;;43.72;22.55;;;-0.30;99.90;;;;;;5054786;27;20112;-77
2021/11/30 09:17:00;;;;;;;44.63;23.55;;;-0.30;99.90;;;;;;5054401;27;20097;-77
2021/11/30 09:19:26;;;;;;;45.20;24.15;;;-0.30;99.90;;;;;;5054049;27;20375;-77
2021/11/30 09:21:52;;;;;;;46.30;24.13;;;-0.30;99.90;;;;;;5054619;27;20493;-77
2021/11/30 09:24:18;;;;;;;46.00;25.23;;;-0.30;99.90;;;;;;5053856;27;20120;-77
2021/11/30 09:26:43;;;;;;;36.17;20.25;;;-0.20;99.90;;;;;;5054958;27;20107;-77
2021/11/30 09:29:09;;;;;;;42.13;24.60;;;-0.10;99.90;;;;;;5055390;27;20021;-77
2021/11/30 09:31:35;;;;;;;40.85;22.73;;;0.20;99.90;;;;;;5057492;27;20074;-77
2021/11/30 09:34:03;;;;;;;44.70;22.02;;;0.30;99.90;;;;;;5056391;27;20023;-77
2021/11/30 09:36:32;;;;;;;37.15;22.60;;;0.40;99.90;;;;;;5059276;27;20022;-77
2021/11/30 09:38:59;;;;;;;39.95;20.77;;;0.40;99.90;;;;;;5068322;27;20024;-77
2021/11/30 09:41:26;;;;;;;36.72;19.67;;;0.30;99.90;;;;;;5068479;27;20030;-77
2021/11/30 09:43:52;;;;;;;33.22;18.55;;;0.30;99.90;;;;;;5059034;27;20075;-77
2021/11/30 09:46:18;;;;;;;35.30;21.13;;;0.30;99.90;;;;;;5038769;27;20061;-78
2021/11/30 09:48:44;;;;;;;35.17;18.48;;;0.40;99.90;;;;;;5031071;28;20052;-77
2021/11/30 09:51:10;;;;;;;38.58;19.27;;;0.50;99.90;;;;;;5037987;28;20116;-77
2021/11/30 09:53:36;;;;;;;33.13;19.85;;;0.40;99.90;;;;;;5036361;28;20120;-77
2021/11/30 09:56:03;;;;;;;35.10;19.42;;;0.60;99.90;;;;;;5040429;28;20055;-77
2021/11/30 09:58:29;;;;;;;34.15;18.95;;;0.70;99.90;;;;;;5035379;28;20501;-77
2021/11/30 10:00:57;;;;;;;34.05;19.90;;;0.90;99.90;;;;;;5033638;28;20117;-77
2021/11/30 10:03:24;;;;;;;31.13;17.40;;;0.80;99.90;;;;;;5044072;27;20390;-77
2021/11/30 10:05:52;;;;;;;31.00;17.42;;;0.90;99.90;;;;;;5050628;27;20025;-77
2021/11/30 10:08:33;;;;;;;36.65;18.08;;;1.00;99.90;;;;;;5048689;27;20034;-78
2021/11/30 10:11:00;;;;;;;24.63;14.38;;;1.10;99.90;;;;;;5050778;27;20105;-77
2021/11/30 10:13:27;;;;;;;24.42;15.70;;;1.20;99.90;;;;;;5049821;27;20036;-77
2021/11/30 10:16:03;;;;;;;29.95;16.65;;;1.20;99.90;;;;;;5035382;28;20078;-77
2021/11/30 10:18:38;;;;;;;25.65;14.48;;;1.10;99.90;;;;;;5034356;28;20481;-77
2021/11/30 10:21:09;;;;;;;24.73;14.18;;;1.00;99.90;;;;;;5035229;28;20060;-77
2021/11/30 10:23:46;;;;;;;28.00;14.20;;;1.00;99.90;;;;;;5033878;28;20058;-77
2021/11/30 10:26:11;;;;;;;19.35;12.00;;;0.90;99.90;;;;;;5041296;28;20028;-77
2021/11/30 10:28:37;;;;;;;21.92;11.57;;;0.90;99.90;;;;;;5035024;28;20037;-77
2021/11/30 10:31:09;;;;;;;18.50;11.23;;;0.80;99.90;;;;;;5036429;28;20101;-77
2021/11/30 10:33:35;;;;;;;20.55;12.27;;;0.90;99.90;;;;;;5038923;28;20389;-77
2021/11/30 10:36:03;;;;;;;20.88;12.32;;;0.90;99.90;;;;;;5040104;28;20036;-77
2021/11/30 10:38:39;;;;;;;16.25;11.25;;;1.00;99.90;;;;;;5033438;27;20069;-77
2021/11/30 10:41:13;;;;;;;16.73;11.27;;;1.00;99.90;;;;;;5041244;28;20481;-77
2021/11/30 10:43:51;;;;;;;17.30;10.32;;;1.00;99.90;;;;;;5036995;28;20045;-77
2021/11/30 10:46:25;;;;;;;16.33;10.32;;;1.10;99.90;;;;;;5036903;28;20025;-77
2021/11/30 10:48:51;;;;;;;14.93;9.82;;;1.20;99.90;;;;;;5037066;28;20090;-77
2021/11/30 10:51:17;;;;;;;14.65;9.25;;;1.10;99.90;;;;;;5033282;28;20389;-77
2021/11/30 10:53:46;;;;;;;15.40;9.70;;;1.20;99.90;;;;;;5038785;28;20013;-77
2021/11/30 10:56:12;;;;;;;17.42;9.45;;;1.10;99.90;;;;;;5035218;28;20481;-77
2021/11/30 10:58:41;;;;;;;15.00;10.07;;;1.20;99.90;;;;;;5035780;28;20030;-77
2021/11/30 11:01:13;;;;;;;13.90;8.68;;;1.10;99.90;;;;;;5034494;28;20028;-77
2021/11/30 11:03:39;;;;;;;16.88;10.75;;;1.00;99.90;;;;;;5035424;28;20048;-77
2021/11/30 11:08:55;;;;;;;17.02;8.85;;;1.10;99.90;;;;;;5036544;28;20071;-77
2021/11/30 11:11:54;;;;;;;13.10;8.48;;;1.10;99.90;;;;;;5041440;28;20060;-77
2021/11/30 11:14:25;;;;;;;16.70;10.18;;;1.00;99.90;;;;;;5038643;28;20045;-77
2021/11/30 11:16:59;;;;;;;13.18;8.55;;;1.00;99.90;;;;;;5034051;28;20436;-77
2021/11/30 11:19:48;;;;;;;16.90;10.75;;;0.90;99.90;;;;;;5036589;28;20070;-77
2021/11/30 11:22:15;;;;;;;17.30;10.02;;;1.00;99.90;;;;;;5033543;27;20542;-77
2021/11/30 11:24:42;;;;;;;18.85;10.82;;;0.90;99.90;;;;;;5029355;28;20089;-77
2021/11/30 11:27:08;;;;;;;25.73;15.10;;;0.90;99.90;;;;;;5030969;28;20024;-77
2021/11/30 11:29:37;;;;;;;52.22;31.52;;;0.90;99.90;;;;;;5038903;28;20059;-77
2021/11/30 11:32:07;;;;;;;54.65;31.33;;;0.90;99.90;;;;;;5050744;28;20017;-77
2021/11/30 11:34:34;;;;;;;25.45;16.88;;;1.00;99.90;;;;;;5049374;27;20014;-77
2021/11/30 11:37:03;;;;;;;23.98;15.15;;;0.90;99.90;;;;;;5050712;28;20066;-77
2021/11/30 11:39:30;;;;;;;53.03;33.78;;;0.90;99.90;;;;;;5050535;28;20100;-77
2021/11/30 11:42:04;;;;;;;44.20;26.35;;;0.90;99.90;;;;;;5050605;28;20026;-77
2021/11/30 11:44:30;;;;;;;37.53;23.05;;;0.80;99.90;;;;;;5049243;28;20047;-77
2021/11/30 11:47:04;;;;;;;20.00;9.98;;;0.80;99.90;;;;;;5049621;28;20039;-77
2021/11/30 11:49:37;;;;;;;20.80;10.25;;;0.80;99.90;;;;;;5049139;28;20029;-77
2021/11/30 11:52:04;;;;;;;18.58;10.55;;;0.70;99.90;;;;;;5050407;28;20520;-77
2021/11/30 11:54:35;;;;;;;22.23;15.02;;;0.70;99.90;;;;;;5049090;27;20021;-77
2021/11/30 11:57:08;;;;;;;16.42;9.30;;;0.60;99.90;;;;;;5050408;28;20025;-77
2021/11/30 11:59:44;;;;;;;61.75;22.15;;;0.60;99.90;;;;;;5046084;28;20021;-77
2021/11/30 12:02:21;;;;;;;21.67;9.63;;;0.60;99.90;;;;;;5049930;28;20046;-77
2021/11/30 12:04:51;;;;;;;24.88;12.82;;;0.50;99.90;;;;;;5050152;28;20497;-77
2021/11/30 12:07:17;;;;;;;22.83;11.63;;;0.30;99.90;;;;;;5048871;28;20020;-77
2021/11/30 12:09:42;;;;;;;20.52;11.20;;;0.20;99.90;;;;;;5046000;28;20063;-77
2021/11/30 12:12:11;;;;;;;40.15;21.48;;;0.30;99.90;;;;;;5050083;28;20017;-77
2021/11/30 12:14:37;;;;;;;74.03;41.05;;;0.30;99.90;;;;;;5047200;28;20107;-77
2021/11/30 12:17:15;;;;;;;22.67;12.10;;;0.20;99.90;;;;;;5048511;28;20148;-77
2021/11/30 12:19:57;;;;;;;26.75;12.07;;;0.10;99.90;;;;;;5041829;27;20815;-77
2021/11/30 12:22:43;;;;;;;27.73;13.77;;;0.00;99.90;;;;;;5045829;27;20026;-77
2021/11/30 12:25:29;;;;;;;31.88;13.90;;;0.00;99.90;;;;;;5046805;27;20025;-77
2021/11/30 12:28:03;;;;;;;60.00;28.33;;;0.10;99.90;;;;;;5035865;28;20029;-77
2021/11/30 12:30:53;;;;;;;58.30;20.98;;;0.10;99.90;;;;;;5032133;28;20010;-77
2021/11/30 12:33:32;;;;;;;44.65;16.83;;;0.10;99.90;;;;;;5038768;28;20061;-77
2021/11/30 12:35:59;;;;;;;27.73;13.25;;;0.10;99.90;;;;;;5035899;28;20013;-77
2021/11/30 12:38:35;;;;;;;83.57;39.17;;;0.10;99.90;;;;;;5034652;28;20472;-77
2021/11/30 12:41:25;;;;;;;45.65;19.08;;;0.10;99.90;;;;;;5041941;28;20454;-77
2021/11/30 12:44:06;;;;;;;25.38;10.48;;;0.10;99.90;;;;;;5034341;28;20485;-77
2021/11/30 12:46:39;;;;;;;27.85;11.55;;;0.10;99.90;;;;;;5036375;28;20049;-77
2021/11/30 12:49:29;;;;;;;30.38;13.02;;;0.10;99.90;;;;;;5044298;28;20040;-77
2021/11/30 12:52:20;;;;;;;27.70;13.05;;;0.20;99.90;;;;;;5035541;28;20132;-77
2021/11/30 12:54:52;;;;;;;63.28;26.92;;;0.20;99.90;;;;;;5033979;28;20078;-77
2021/11/30 12:57:39;;;;;;;26.60;12.47;;;0.20;99.90;;;;;;5038215;27;20019;-77
2021/11/30 13:00:09;;;;;;;26.27;12.25;;;0.20;99.90;;;;;;5033266;28;20309;-77
2021/11/30 13:02:45;;;;;;;29.92;12.43;;;0.20;99.90;;;;;;5038171;28;20035;-77
2021/11/30 13:05:11;;;;;;;21.08;10.40;;;0.20;99.90;;;;;;5031513;28;20013;-77
2021/11/30 13:08:03;;;;;;;20.67;12.07;;;0.20;99.90;;;;;;5029256;28;20112;-78
2021/11/30 13:14:04;;;;;;;22.98;11.27;;;0.20;99.90;;;;;;5035212;28;20841;-77
2021/11/30 13:16:32;;;;;;;36.92;16.55;;;0.20;99.90;;;;;;5047238;27;20554;-77
2021/11/30 13:19:03;;;;;;;35.47;15.75;;;0.20;99.90;;;;;;5034476;28;20025;-77
2021/11/30 13:21:38;;;;;;;37.00;17.10;;;0.20;99.90;;;;;;5034166;28;20035;-77
2021/11/30 13:24:06;;;;;;;35.38;15.18;;;0.20;99.90;;;;;;5033775;28;20068;-77
2021/11/30 13:26:31;;;;;;;31.08;13.90;;;0.20;99.90;;;;;;5036841;28;20022;-77
2021/11/30 13:28:59;;;;;;;20.27;12.25;;;0.20;99.90;;;;;;5038600;28;20089;-77
2021/11/30 13:31:25;;;;;;;25.05;12.80;;;0.20;99.90;;;;;;5037681;28;20431;-77
2021/11/30 13:33:50;;;;;;;23.85;12.57;;;0.20;99.90;;;;;;5040474;28;20060;-77
2021/11/30 13:36:16;;;;;;;28.52;14.07;;;0.20;99.90;;;;;;5039749;28;20033;-77
2021/11/30 13:38:48;;;;;;;20.58;12.07;;;0.20;99.90;;;;;;5034071;28;20082;-77
2021/11/30 13:41:16;;;;;;;25.77;14.02;;;0.20;99.90;;;;;;5037713;28;20048;-77
2021/11/30 13:43:53;;;;;;;27.23;14.05;;;0.20;99.90;;;;;;5036691;27;20098;-77
2021/11/30 13:46:25;;;;;;;22.60;12.48;;;0.20;99.90;;;;;;5040477;28;20036;-77
2021/11/30 13:48:53;;;;;;;25.50;11.10;;;0.10;99.90;;;;;;5039860;28;20047;-77
2021/11/30 13:51:25;;;;;;;28.08;13.20;;;0.10;99.90;;;;;;5037807;28;20018;-77
2021/11/30 13:54:03;;;;;;;20.15;10.93;;;0.20;99.90;;;;;;5036408;28;20032;-77